KCRE/CRE METAR and TAF weather

Enter ICAO airport designator
Station Type Date Time Source
KCRE METAR 2022/12/08 13:53 UTC NOAA

KCRE 081353Z VRB05KT 10SM CLR 19/18 A3017 RMK AO1 SLP218 T01940178


Station Type Date Time Source
KCRE Decoded METAR 2022/12/08 13:53 UTC NOAA

N. MYRTLE BCH.GRAND STRAND, SC, United States (KCRE) 33-49N 078-43W 10M
Dec 08, 2022 - 08:53 AM EST / 2022.12.08 1353 UTC
Wind: Variable at 6 MPH (5 KT):0
Visibility: 10 mile(s):0
Sky conditions: clear
Temperature: 66.9 F (19.4 C)
Dew Point: 64.0 F (17.8 C)
Relative Humidity: 90%
Pressure (altimeter): 30.17 in. Hg (1021 hPa)
ob: KCRE 081353Z VRB05KT 10SM CLR 19/18 A3017 RMK AO1 SLP218 T01940178
cycle: 14

Station Type Date Time Source
KCRE TAF 2022/12/08 12:42 UTC NOAA

TAF KCRE 081139Z 0812/0912 33003KT P6SM SCT015
TEMPO 0812/0816 OVC015
FM081600 04008KT P6SM OVC025
FM082300 06004KT P6SM OVC015
FM090800 04008KT P6SM VCSH OVC007

Example: see airport list